createdAt,value
2019-04-20T00:01:03.273Z,101844.14
2019-04-20T00:03:39.846Z,101851.63
2019-04-20T00:06:09.188Z,101848.55
2019-04-20T00:08:42.717Z,101845.96
2019-04-20T00:11:21.888Z,101849.30
2019-04-20T00:13:57.745Z,101845.30
2019-04-20T00:16:21.170Z,101847.39
2019-04-20T00:18:56.575Z,101842.95
2019-04-20T00:21:46.919Z,101851.73
2019-04-20T00:24:21.019Z,101845.97
2019-04-20T00:29:40.705Z,101845.84
2019-04-20T00:32:06.335Z,101838.66
2019-04-20T00:34:32.002Z,101841.36
2019-04-20T00:37:00.613Z,101851.75
2019-04-20T00:39:32.271Z,101841.66
2019-04-20T00:42:10.722Z,101842.45
2019-04-20T00:44:44.085Z,101839.33
2019-04-20T00:47:30.711Z,101838.02
2019-04-20T00:50:04.066Z,101839.83
2019-04-20T00:52:32.834Z,101830.14
2019-04-20T00:54:55.914Z,101832.73
2019-04-20T00:57:37.965Z,101835.09
2019-04-20T01:00:17.613Z,101828.56
2019-04-20T01:02:45.435Z,101829.52
2019-04-20T01:05:27.920Z,101829.48
2019-04-20T01:08:00.171Z,101832.06
2019-04-20T01:10:35.387Z,101829.52
2019-04-20T01:13:11.044Z,101828.64
2019-04-20T01:15:42.935Z,101830.25
2019-04-20T01:18:10.777Z,101825.36
2019-04-20T01:20:43.029Z,101826.23
2019-04-20T01:23:19.084Z,101826.72
2019-04-20T01:25:55.851Z,101828.06
2019-04-20T01:28:37.557Z,101827.11
2019-04-20T01:31:06.728Z,101829.89
2019-04-20T01:33:40.057Z,101827.98
2019-04-20T01:36:19.469Z,101824.53
2019-04-20T01:38:47.325Z,101827.52
2019-04-20T01:41:07.890Z,101825.29
2019-04-20T01:43:39.579Z,101824.38
2019-04-20T01:46:15.750Z,101822.19
2019-04-20T01:48:44.734Z,101826.58
2019-04-20T01:51:21.170Z,101824.31
2019-04-20T01:54:06.331Z,101817.72
2019-04-20T01:56:42.651Z,101821.65
2019-04-20T01:59:23.076Z,101822.96
2019-04-20T02:02:04.654Z,101821.33
2019-04-20T02:04:40.432Z,101825.86
2019-04-20T02:07:10.348Z,101824.03
2019-04-20T02:09:49.578Z,101821.88
2019-04-20T02:12:22.350Z,101821.88
2019-04-20T02:14:54.046Z,101820.05
2019-04-20T02:17:33.589Z,101815.25
2019-04-20T02:20:15.590Z,101817.18
2019-04-20T02:22:46.592Z,101816.66
2019-04-20T02:25:03.521Z,101817.94
2019-04-20T02:27:44.667Z,101822.66
2019-04-20T02:30:40.355Z,101824.56
2019-04-20T02:33:31.505Z,101818.41
2019-04-20T02:36:11.087Z,101823.17
2019-04-20T02:41:51.674Z,101819.24
2019-04-20T02:44:16.072Z,101820.47
2019-04-20T02:47:07.596Z,101815.31
2019-04-20T02:49:29.966Z,101820.55
2019-04-20T02:51:52.426Z,101821.47
2019-04-20T02:54:21.950Z,101818.59
2019-04-20T02:57:12.140Z,101820.94
2019-04-20T03:01:51.741Z,101826.17
2019-04-20T03:04:16.266Z,101826.09
2019-04-20T03:06:55.002Z,101829.58
2019-04-20T03:09:36.822Z,101833.56
2019-04-20T03:12:08.220Z,101828.80
2019-04-20T03:14:36.218Z,101831.58
2019-04-20T03:17:15.268Z,101837.81
2019-04-20T03:19:41.160Z,101837.81
2019-04-20T03:22:21.396Z,101842.35
2019-04-20T03:24:53.948Z,101846.17
2019-04-20T03:27:25.128Z,101842.77
2019-04-20T03:30:05.871Z,101850.73
2019-04-20T03:35:20.042Z,101856.87
2019-04-20T03:37:48.713Z,101855.49
2019-04-20T03:40:19.125Z,101859.78
2019-04-20T03:42:35.006Z,101857.59
2019-04-20T03:45:12.483Z,101869.63
2019-04-20T03:47:52.939Z,101866.43
2019-04-20T03:50:38.538Z,101862.97
2019-04-20T03:53:12.900Z,101862.12
2019-04-20T03:55:51.629Z,101863.54
2019-04-20T03:58:46.042Z,101869.56
2019-04-20T04:01:55.564Z,101871.52
2019-04-20T04:04:16.915Z,101875.20
2019-04-20T04:06:37.345Z,101875.23
2019-04-20T04:09:15.266Z,101873.63
2019-04-20T04:11:58.523Z,101873.69
2019-04-20T04:14:17.813Z,101871.44
2019-04-20T04:16:54.342Z,101874.39
2019-04-20T04:19:28.448Z,101873.89
2019-04-20T04:22:08.656Z,101876.28
2019-04-20T04:24:39.442Z,101870.64
2019-04-20T04:27:22.534Z,101868.98
2019-04-20T04:29:56.998Z,101874.50
2019-04-20T04:32:47.972Z,101879.28
2019-04-20T04:34:58.079Z,101879.72
2019-04-20T04:37:33.824Z,101875.89
2019-04-20T04:40:18.260Z,101876.45
2019-04-20T04:42:42.671Z,101871.78
2019-04-20T04:45:01.583Z,101873.23
2019-04-20T04:47:28.458Z,101874.22
2019-04-20T04:50:09.570Z,101876.58
2019-04-20T04:52:47.812Z,101872.62
2019-04-20T04:55:20.692Z,101871.42
2019-04-20T04:57:41.526Z,101870.28
2019-04-20T05:00:19.933Z,101873.91
2019-04-20T05:02:53.898Z,101873.97
2019-04-20T05:05:41.389Z,101873.99
2019-04-20T05:08:07.241Z,101873.39
2019-04-20T05:10:29.018Z,101878.17
2019-04-20T05:13:00.880Z,101872.94
2019-04-20T05:15:48.408Z,101876.89
2019-04-20T05:18:34.436Z,101877.49
2019-04-20T05:20:58.698Z,101878.76
2019-04-20T05:23:28.074Z,101874.46
2019-04-20T05:26:14.182Z,101878.47
2019-04-20T05:28:37.146Z,101879.82
2019-04-20T05:31:02.989Z,101881.18
2019-04-20T05:33:57.092Z,101870.23
2019-04-20T05:36:24.753Z,101872.42
2019-04-20T05:39:02.238Z,101876.38
2019-04-20T05:41:32.890Z,101876.87
2019-04-20T05:44:05.067Z,101869.34
2019-04-20T05:46:41.182Z,101878.17
2019-04-20T05:49:18.764Z,101875.52
2019-04-20T05:51:48.670Z,101874.66
2019-04-20T05:54:19.365Z,101880.78
2019-04-20T05:56:58.886Z,101880.77
2019-04-20T05:59:27.082Z,101879.49
2019-04-20T06:02:07.604Z,101885.14
2019-04-20T06:04:46.381Z,101864.34
2019-04-20T06:07:11.301Z,101880.20
2019-04-20T06:09:52.422Z,101886.55
2019-04-20T06:15:02.823Z,101886.97
2019-04-20T06:17:52.753Z,101889.92
2019-04-20T06:20:38.734Z,101890.39
2019-04-20T06:23:34.621Z,101888.62
2019-04-20T06:26:13.421Z,101889.52
2019-04-20T06:28:30.037Z,101893.02
2019-04-20T06:31:08.866Z,101892.64
2019-04-20T06:34:30.402Z,101888.02
2019-04-20T06:39:32.598Z,101883.66
2019-04-20T06:44:36.968Z,101885.89
2019-04-20T06:47:10.339Z,101885.89
2019-04-20T06:50:00.430Z,101890.70
2019-04-20T06:55:04.065Z,101878.75
2019-04-20T06:57:40.564Z,101883.14
2019-04-20T07:00:15.695Z,101879.23
2019-04-20T07:02:59.041Z,101877.87
2019-04-20T07:05:23.640Z,101877.87
2019-04-20T07:08:00.423Z,101882.16
2019-04-20T07:10:31.355Z,101879.62
2019-04-20T07:12:56.553Z,101887.94
2019-04-20T07:15:28.869Z,101887.94
2019-04-20T07:18:09.236Z,101879.27
2019-04-20T07:21:12.802Z,101882.93
2019-04-20T07:23:48.178Z,101879.00
2019-04-20T07:26:15.337Z,101883.02
2019-04-20T07:28:41.337Z,101880.91
2019-04-20T07:31:11.403Z,101881.82
2019-04-20T07:33:51.198Z,101892.31
2019-04-20T07:36:24.475Z,101882.38
2019-04-20T07:38:55.266Z,101880.64
2019-04-20T07:41:35.508Z,101867.33
2019-04-20T07:44:03.342Z,101884.47
2019-04-20T07:46:51.083Z,101877.25
2019-04-20T07:49:07.626Z,101882.63
2019-04-20T07:51:25.981Z,101872.19
2019-04-20T07:54:17.667Z,101871.89
2019-04-20T07:56:47.775Z,101874.22
2019-04-20T07:59:13.934Z,101874.56
2019-04-20T08:02:01.462Z,101873.80
2019-04-20T08:04:30.044Z,101863.95
2019-04-20T08:06:51.864Z,101881.61
2019-04-20T08:09:26.153Z,101869.69
2019-04-20T08:12:26.874Z,101869.42
2019-04-20T08:14:56.876Z,101866.30
2019-04-20T08:17:30.402Z,101865.29
2019-04-20T08:19:59.559Z,101861.14
2019-04-20T08:22:33.950Z,101864.16
2019-04-20T08:24:59.297Z,101865.76
2019-04-20T08:27:21.249Z,101853.96
2019-04-20T08:30:20.649Z,101856.94
2019-04-20T08:33:00.411Z,101857.61
2019-04-20T08:35:46.367Z,101858.80
2019-04-20T08:38:38.283Z,101849.51
2019-04-20T08:40:47.866Z,101848.90
2019-04-20T08:43:38.176Z,101848.10
2019-04-20T08:45:52.430Z,101848.68
2019-04-20T08:48:28.749Z,101844.09
2019-04-20T08:50:57.778Z,101845.05
2019-04-20T08:53:36.982Z,101836.78
2019-04-20T08:56:02.280Z,101827.94
2019-04-20T08:58:22.643Z,101832.45
2019-04-20T09:00:58.693Z,101844.20
2019-04-20T09:03:32.571Z,101836.14
2019-04-20T09:06:08.602Z,101836.20
2019-04-20T09:08:46.521Z,101840.36
2019-04-20T09:11:24.261Z,101831.80
2019-04-20T09:13:47.701Z,101829.95
2019-04-20T09:16:19.952Z,101826.48
2019-04-20T09:18:57.485Z,101823.25
2019-04-20T09:21:34.183Z,101833.39
2019-04-20T09:24:22.859Z,101822.20
2019-04-20T09:26:47.986Z,101830.27
2019-04-20T09:29:18.488Z,101820.92
2019-04-20T09:31:52.087Z,101815.97
2019-04-20T09:34:37.111Z,101827.83
2019-04-20T09:37:21.457Z,101824.00
2019-04-20T09:39:51.406Z,101801.25
2019-04-20T09:42:09.496Z,101801.48
2019-04-20T09:44:46.198Z,101810.22
2019-04-20T09:47:14.345Z,101810.33
2019-04-20T09:49:58.997Z,101799.56
2019-04-20T09:52:31.268Z,101811.45
2019-04-20T09:55:07.846Z,101804.09
2019-04-20T09:57:46.723Z,101797.42
2019-04-20T10:00:16.844Z,101805.89
2019-04-20T10:02:36.333Z,101803.73
2019-04-20T10:05:09.403Z,101792.84
2019-04-20T10:07:42.232Z,101795.55
2019-04-20T10:10:24.592Z,101789.66
2019-04-20T10:12:48.539Z,101789.48
2019-04-20T10:15:23.483Z,101797.80
2019-04-20T10:17:53.950Z,101782.14
2019-04-20T10:20:30.974Z,101779.77
2019-04-20T10:22:58.799Z,101771.42
2019-04-20T10:25:30.915Z,101775.16
2019-04-20T10:28:03.371Z,101780.35
2019-04-20T10:30:36.611Z,101778.28
2019-04-20T10:33:09.880Z,101776.77
2019-04-20T10:35:41.788Z,101774.82
2019-04-20T10:38:15.709Z,101776.24
2019-04-20T10:40:57.272Z,101774.49
2019-04-20T10:43:21.965Z,101766.11
2019-04-20T10:45:54.773Z,101773.93
2019-04-20T10:48:26.944Z,101776.72
2019-04-20T10:50:59.007Z,101764.33
2019-04-20T10:53:32.193Z,101767.83
2019-04-20T10:56:05.236Z,101763.55
2019-04-20T10:58:37.789Z,101761.89
2019-04-20T11:01:09.908Z,101762.02
2019-04-20T11:03:42.765Z,101752.34
2019-04-20T11:06:14.570Z,101759.95
2019-04-20T11:08:46.684Z,101755.98
2019-04-20T11:11:25.190Z,101759.37
2019-04-20T11:13:51.479Z,101753.87
2019-04-20T11:16:24.270Z,101739.48
2019-04-20T11:18:56.001Z,101744.38
2019-04-20T11:21:28.284Z,101737.42
2019-04-20T11:24:00.389Z,101729.61
2019-04-20T11:26:35.384Z,101744.23
2019-04-20T11:29:06.393Z,101742.98
2019-04-20T11:31:43.196Z,101725.34
2019-04-20T11:34:14.923Z,101726.53
2019-04-20T11:36:45.436Z,101731.30
2019-04-20T11:39:17.121Z,101739.64
2019-04-20T11:41:49.753Z,101729.32
2019-04-20T11:44:21.252Z,101730.73
2019-04-20T11:46:54.463Z,101725.48
2019-04-20T11:49:26.094Z,101725.60
2019-04-20T11:51:59.383Z,101732.34
2019-04-20T11:54:32.383Z,101732.27
2019-04-20T11:57:04.040Z,101724.36
2019-04-20T11:59:37.120Z,101717.15
2019-04-20T12:02:15.831Z,101713.16
2019-04-20T12:05:05.858Z,101714.51
2019-04-20T12:07:24.913Z,101723.45
2019-04-20T12:10:05.673Z,101709.84
2019-04-20T12:12:40.055Z,101717.28
2019-04-20T12:15:06.601Z,101710.63
2019-04-20T12:17:38.048Z,101712.52
2019-04-20T12:20:10.944Z,101711.75
2019-04-20T12:22:42.382Z,101708.59
2019-04-20T12:25:14.227Z,101714.13
2019-04-20T12:27:48.834Z,101709.11
2019-04-20T12:30:19.630Z,101708.92
2019-04-20T12:32:56.840Z,101706.07
2019-04-20T12:35:26.499Z,101709.66
2019-04-20T12:37:58.959Z,101701.91
2019-04-20T12:40:30.617Z,101702.20
2019-04-20T12:43:02.178Z,101690.63
2019-04-20T12:45:35.669Z,101693.49
2019-04-20T12:48:08.034Z,101695.98
2019-04-20T12:50:39.703Z,101692.21
2019-04-20T12:53:12.836Z,101682.72
2019-04-20T12:55:44.663Z,101684.55
2019-04-20T12:58:16.734Z,101686.59
2019-04-20T13:00:52.150Z,101674.21
2019-04-20T13:03:23.914Z,101678.35
2019-04-20T13:05:56.107Z,101684.02
2019-04-20T13:08:36.241Z,101682.55
2019-04-20T13:11:10.945Z,101673.39
2019-04-20T13:13:46.226Z,101683.23
2019-04-20T13:16:28.497Z,101677.66
2019-04-20T13:19:03.392Z,101669.03
2019-04-20T13:21:35.190Z,101670.91
2019-04-20T13:24:07.110Z,101665.41
2019-04-20T13:26:38.808Z,101657.70
2019-04-20T13:29:10.954Z,101668.48
2019-04-20T13:31:43.860Z,101658.67
2019-04-20T13:34:15.618Z,101662.88
2019-04-20T13:36:48.420Z,101656.09
2019-04-20T13:39:19.974Z,101661.38
2019-04-20T13:42:02.407Z,101657.53
2019-04-20T13:44:24.035Z,101658.58
2019-04-20T13:46:56.728Z,101659.21
2019-04-20T13:49:29.162Z,101657.95
2019-04-20T13:52:02.299Z,101657.73
2019-04-20T13:54:33.973Z,101653.86
2019-04-20T13:57:10.176Z,101650.97
2019-04-20T13:59:44.140Z,101649.95
2019-04-20T14:02:30.916Z,101657.79
2019-04-20T14:05:04.635Z,101651.45
2019-04-20T14:07:37.844Z,101648.31
2019-04-20T14:10:09.504Z,101643.81
2019-04-20T14:12:52.384Z,101647.35
2019-04-20T14:15:15.278Z,101649.86
2019-04-20T14:17:47.013Z,101646.08
2019-04-20T14:20:21.904Z,101650.05
2019-04-20T14:22:54.660Z,101649.70
2019-04-20T14:25:27.065Z,101643.44
2019-04-20T14:27:58.663Z,101647.76
2019-04-20T14:30:30.982Z,101647.23
2019-04-20T14:33:03.066Z,101642.11
2019-04-20T14:35:35.054Z,101649.60
2019-04-20T14:38:07.897Z,101647.78
2019-04-20T14:40:39.989Z,101638.73
2019-04-20T14:43:13.052Z,101637.22
2019-04-20T14:45:47.067Z,101634.55
2019-04-20T14:48:18.758Z,101637.13
2019-04-20T14:50:51.574Z,101631.95
2019-04-20T14:53:25.408Z,101638.24
2019-04-20T14:55:57.676Z,101638.98
2019-04-20T14:58:49.202Z,101639.63
2019-04-20T15:01:22.846Z,101638.71
2019-04-20T15:03:59.823Z,101635.30
2019-04-20T15:06:29.591Z,101633.72
2019-04-20T15:09:01.385Z,101639.58
2019-04-20T15:11:36.560Z,101635.45
2019-04-20T15:14:09.018Z,101638.27
2019-04-20T15:16:42.694Z,101626.63
2019-04-20T15:19:17.818Z,101626.22
2019-04-20T15:21:51.393Z,101632.19
2019-04-20T15:24:23.776Z,101629.06
2019-04-20T15:26:56.468Z,101628.30
2019-04-20T15:29:30.424Z,101631.61
2019-04-20T15:32:04.174Z,101627.44
2019-04-20T15:34:36.979Z,101630.08
2019-04-20T15:37:09.902Z,101638.55
2019-04-20T15:39:43.211Z,101628.86
2019-04-20T15:42:15.100Z,101632.85
2019-04-20T15:44:47.255Z,101631.44
2019-04-20T15:47:20.261Z,101635.22
2019-04-20T15:49:51.928Z,101632.73
2019-04-20T15:52:31.411Z,101627.84
2019-04-20T15:55:01.875Z,101630.07
2019-04-20T15:57:33.193Z,101629.58
2019-04-20T16:00:06.682Z,101635.48
2019-04-20T16:02:41.279Z,101632.98
2019-04-20T16:05:28.254Z,101628.67
2019-04-20T16:08:03.942Z,101631.38
2019-04-20T16:10:35.001Z,101640.55
2019-04-20T16:13:19.358Z,101642.42
2019-04-20T16:15:40.220Z,101640.55
2019-04-20T16:18:10.985Z,101646.84
2019-04-20T16:20:52.951Z,101646.57
2019-04-20T16:23:18.554Z,101647.54
2019-04-20T16:26:02.096Z,101641.23
2019-04-20T16:28:35.316Z,101654.42
2019-04-20T16:31:10.066Z,101653.90
2019-04-20T16:33:40.442Z,101658.38
2019-04-20T16:36:12.371Z,101659.08
2019-04-20T16:38:45.507Z,101654.16
2019-04-20T16:41:18.343Z,101654.77
2019-04-20T16:43:51.521Z,101662.19
2019-04-20T16:46:25.605Z,101662.31
2019-04-20T16:48:56.989Z,101665.91
2019-04-20T16:51:29.210Z,101673.00
2019-04-20T16:54:01.600Z,101670.17
2019-04-20T16:56:33.438Z,101667.84
2019-04-20T16:59:09.724Z,101667.56
2019-04-20T17:01:40.612Z,101669.33
2019-04-20T17:04:17.165Z,101676.47
2019-04-20T17:07:05.961Z,101675.52
2019-04-20T17:09:38.424Z,101677.94
2019-04-20T17:12:10.448Z,101686.08
2019-04-20T17:14:43.336Z,101685.73
2019-04-20T17:17:15.779Z,101687.55
2019-04-20T17:19:49.293Z,101689.34
2019-04-20T17:22:21.479Z,101688.09
2019-04-20T17:24:53.774Z,101692.53
2019-04-20T17:27:44.739Z,101695.66
2019-04-20T17:30:27.108Z,101694.33
2019-04-20T17:33:00.564Z,101697.14
2019-04-20T17:35:46.299Z,101700.09
2019-04-20T17:38:08.842Z,101699.48
2019-04-20T17:41:01.517Z,101705.14
2019-04-20T17:43:24.905Z,101702.03
2019-04-20T17:45:55.796Z,101704.47
2019-04-20T17:48:33.287Z,101699.02
2019-04-20T17:51:20.775Z,101698.90
2019-04-20T17:53:55.750Z,101698.44
2019-04-20T17:56:22.431Z,101698.36
2019-04-20T17:58:54.558Z,101704.34
2019-04-20T18:01:48.945Z,101701.56
2019-04-20T18:04:46.548Z,101703.47
2019-04-20T18:06:53.757Z,101708.20
2019-04-20T18:09:38.656Z,101707.21
2019-04-20T18:11:55.503Z,101707.55
2019-04-20T18:14:38.655Z,101709.94
2019-04-20T18:17:25.954Z,101700.72
2019-04-20T18:19:47.173Z,101701.23
2019-04-20T18:22:19.513Z,101708.53
2019-04-20T18:25:16.352Z,101704.66
2019-04-20T18:27:41.379Z,101708.78
2019-04-20T18:30:15.534Z,101703.04
2019-04-20T18:32:37.844Z,101715.81
2019-04-20T18:35:18.212Z,101710.48
2019-04-20T18:37:58.946Z,101713.69
2019-04-20T18:40:32.516Z,101705.36
2019-04-20T18:43:05.243Z,101705.82
2019-04-20T18:45:46.532Z,101704.52
2019-04-20T18:48:24.618Z,101704.09
2019-04-20T18:50:42.427Z,101698.78
2019-04-20T18:53:19.045Z,101698.86
2019-04-20T18:55:55.144Z,101696.63
2019-04-20T18:58:20.701Z,101689.16
2019-04-20T19:00:54.198Z,101699.75
2019-04-20T19:03:32.716Z,101694.03
2019-04-20T19:06:00.162Z,101697.62
2019-04-20T19:08:39.109Z,101698.48
2019-04-20T19:11:09.749Z,101700.70
2019-04-20T19:13:44.134Z,101693.63
2019-04-20T19:16:27.516Z,101693.20
2019-04-20T19:19:04.370Z,101692.76
2019-04-20T19:21:26.988Z,101688.36
2019-04-20T19:24:06.604Z,101691.94
2019-04-20T19:26:32.211Z,101690.63
2019-04-20T19:29:14.013Z,101684.47
2019-04-20T19:31:50.839Z,101687.11
2019-04-20T19:34:26.437Z,101684.91
2019-04-20T19:36:59.113Z,101683.55
2019-04-20T19:39:32.163Z,101683.55
2019-04-20T19:42:06.778Z,101684.87
2019-04-20T19:44:41.935Z,101685.33
2019-04-20T19:47:19.453Z,101679.62
2019-04-20T19:49:40.758Z,101686.22
2019-04-20T19:52:31.001Z,101677.44
2019-04-20T19:54:55.518Z,101681.82
2019-04-20T19:57:31.624Z,101677.44
2019-04-20T19:59:49.630Z,101673.45
2019-04-20T20:02:18.704Z,101681.82
2019-04-20T20:04:57.294Z,101683.14
2019-04-20T20:07:32.205Z,101679.17
2019-04-20T20:10:00.520Z,101679.17
2019-04-20T20:12:31.575Z,101680.47
2019-04-20T20:15:06.438Z,101679.98
2019-04-20T20:18:00.339Z,101677.34
2019-04-20T20:20:30.853Z,101680.83
2019-04-20T20:22:49.770Z,101678.22
2019-04-20T20:25:19.016Z,101678.20
2019-04-20T20:27:57.434Z,101682.59
2019-04-20T20:30:32.836Z,101680.39
2019-04-20T20:33:13.936Z,101679.88
2019-04-20T20:35:38.201Z,101678.58
2019-04-20T20:38:16.649Z,101682.11
2019-04-20T20:40:51.608Z,101681.16
2019-04-20T20:43:20.656Z,101678.06
2019-04-20T20:46:01.181Z,101682.53
2019-04-20T20:48:33.396Z,101676.28
2019-04-20T20:51:10.433Z,101674.38
2019-04-20T20:53:41.394Z,101676.71
2019-04-20T20:56:06.310Z,101674.56
2019-04-20T20:58:43.846Z,101677.14
2019-04-20T21:01:12.960Z,101677.14
2019-04-20T21:03:45.195Z,101682.41
2019-04-20T21:06:16.743Z,101680.28
2019-04-20T21:08:51.463Z,101677.78
2019-04-20T21:11:25.313Z,101678.20
2019-04-20T21:13:54.575Z,101676.03
2019-04-20T21:16:31.850Z,101673.83
2019-04-20T21:19:17.182Z,101674.73
2019-04-20T21:21:46.338Z,101677.36
2019-04-20T21:24:13.049Z,101674.73
2019-04-20T21:26:44.117Z,101675.14
2019-04-20T21:29:19.169Z,101678.23
2019-04-20T21:31:55.569Z,101673.82
2019-04-20T21:34:22.321Z,101674.70
2019-04-20T21:37:01.861Z,101673.86
2019-04-20T21:39:39.175Z,101671.22
2019-04-20T21:42:09.175Z,101670.73
2019-04-20T21:44:40.600Z,101673.70
2019-04-20T21:47:09.149Z,101668.56
2019-04-20T21:49:51.534Z,101668.52
2019-04-20T21:52:22.996Z,101673.33
2019-04-20T21:54:47.908Z,101673.34
2019-04-20T21:57:20.014Z,101669.38
2019-04-20T21:59:54.265Z,101664.08
2019-04-20T22:02:30.679Z,101673.67
2019-04-20T22:04:58.781Z,101664.70
2019-04-20T22:07:30.535Z,101660.56
2019-04-20T22:10:02.527Z,101657.96
2019-04-20T22:12:41.614Z,101654.92
2019-04-20T22:15:17.886Z,101658.87
2019-04-20T22:17:42.780Z,101657.06
2019-04-20T22:20:23.241Z,101652.63
2019-04-20T22:23:01.133Z,101657.89
2019-04-20T22:25:40.723Z,101647.77
2019-04-20T22:27:58.219Z,101654.31
2019-04-20T22:30:28.177Z,101646.39
2019-04-20T22:33:23.669Z,101650.39
2019-04-20T22:35:58.860Z,101654.32
2019-04-20T22:38:27.253Z,101645.53
2019-04-20T22:41:06.616Z,101649.86
2019-04-20T22:43:36.910Z,101649.50
2019-04-20T22:46:05.909Z,101645.95
2019-04-20T22:48:45.022Z,101645.08
2019-04-20T22:51:26.389Z,101645.07
2019-04-20T22:53:54.371Z,101640.58
2019-04-20T22:56:34.161Z,101639.63
2019-04-20T22:59:01.069Z,101636.69
2019-04-20T23:01:35.036Z,101638.30
2019-04-20T23:03:59.027Z,101638.73
2019-04-20T23:06:35.656Z,101640.94
2019-04-20T23:09:10.235Z,101632.18
2019-04-20T23:11:40.083Z,101634.81
2019-04-20T23:14:12.028Z,101636.91
2019-04-20T23:16:49.270Z,101633.80
2019-04-20T23:19:28.817Z,101632.38
2019-04-20T23:21:57.230Z,101637.23
2019-04-20T23:24:23.753Z,101631.94
2019-04-20T23:26:55.441Z,101632.75
2019-04-20T23:29:32.655Z,101628.42
2019-04-20T23:32:04.907Z,101628.88
2019-04-20T23:34:37.619Z,101629.22
2019-04-20T23:37:16.098Z,101624.85
2019-04-20T23:39:45.282Z,101623.95
2019-04-20T23:42:23.983Z,101620.44
2019-04-20T23:45:07.508Z,101622.85
2019-04-20T23:47:46.463Z,101626.08
2019-04-20T23:50:37.326Z,101624.31
2019-04-20T23:53:10.399Z,101627.02
2019-04-20T23:55:27.660Z,101618.80
2019-04-20T23:58:06.436Z,101628.84
